Pillsbury, North Dakota
Current Conditions -  °F | °C
As of 12:15 AM on Saturday 29 Nov 2014 (Local Time) from KBAC Reporting Station
Haze Haze  
Wind Chill:   Ceiling: Unl
Heat Index: 16°   Visibility: 6mi
Dew Point: 16°   Wind: 6mph
Humidity: 100%   Direction: 160°SSE
Pressure: 29.49"   Gusts: NA
Location:  47.21°N, 97.79°W
Report Text: KBAC 290615Z AUTO 16005KT 6SM BR CLR M09/M09 A2949 RMK AO2
Loading
Personal Weather Stations






























Interactive Weather Map New forecast layout! Learn more

10-Day Weather Forecast

Advertisements
Track Severe Weather on mobile